createdAt,value
2022-10-11T12:11:16.620Z,52096.00
2022-10-11T12:12:16.575Z,52096.00
2022-10-11T12:13:16.559Z,50752.00
2022-10-11T12:14:16.540Z,51392.00
2022-10-11T12:15:16.525Z,50464.00
2022-10-11T12:16:16.518Z,49824.00
2022-10-11T12:17:16.498Z,47808.00
2022-10-11T12:18:16.484Z,32608.00
2022-10-11T12:19:16.466Z,43040.00
2022-10-11T12:20:16.449Z,48992.00
2022-10-11T12:21:16.442Z,12560.00
2022-10-11T12:23:34.850Z,44224.00
2022-10-11T12:24:34.822Z,28736.00
2022-10-11T12:25:34.809Z,16160.00
2022-10-11T12:26:34.801Z,28704.00
2022-10-11T12:27:34.780Z,46752.00
2022-10-11T12:28:34.817Z,18656.00
2022-10-11T12:29:34.742Z,32480.00
2022-10-11T12:30:34.725Z,29824.00
2022-10-11T12:31:34.745Z,33280.00
2022-10-11T12:36:41.741Z,19456.00
2022-10-11T12:37:41.714Z,50272.00
2022-10-11T12:38:41.700Z,46816.00
2022-10-11T12:39:41.678Z,45664.00
2022-10-11T12:40:41.665Z,44896.00
2022-10-11T12:41:41.635Z,48288.00
2022-10-11T12:42:41.642Z,48160.00
2022-10-11T12:43:41.620Z,46240.00
2022-10-11T12:44:41.598Z,47872.00
2022-10-11T12:45:41.573Z,47744.00
2022-10-11T12:46:41.555Z,46368.00
2022-10-11T12:47:41.561Z,44928.00
2022-10-11T12:48:41.636Z,44512.00
2022-10-11T12:49:41.513Z,44768.00
2022-10-11T12:50:41.491Z,44224.00
2022-10-11T12:51:41.483Z,42400.00
2022-10-11T12:52:41.475Z,42496.00
2022-10-11T12:53:41.446Z,41728.00
2022-10-11T12:54:41.437Z,42464.00
2022-10-11T12:55:41.425Z,42304.00
2022-10-11T12:56:41.398Z,41984.00
2022-10-11T12:57:45.899Z,42976.00
2022-10-11T12:58:41.394Z,43072.00
2022-10-11T12:59:41.363Z,44256.00
2022-10-11T13:00:41.338Z,44704.00
2022-10-11T13:01:41.359Z,45088.00
2022-10-11T13:02:41.326Z,46496.00
2022-10-11T13:03:41.304Z,47200.00
2022-10-11T13:04:41.288Z,48832.00
2022-10-11T13:05:44.779Z,48416.00
2022-10-11T13:06:41.260Z,46656.00
2022-10-11T13:07:41.262Z,45920.00
2022-10-11T13:08:41.233Z,46240.00
2022-10-11T13:09:45.279Z,46560.00
2022-10-11T13:10:41.205Z,45216.00
2022-10-11T13:11:41.182Z,45568.00
2022-10-11T13:12:41.175Z,40928.00
2022-10-11T13:13:41.175Z,41824.00
2022-10-11T13:14:48.915Z,42912.00
2022-10-11T13:15:41.128Z,41088.00
2022-10-11T13:16:41.109Z,40864.00
2022-10-11T13:17:41.094Z,43680.00
2022-10-11T13:18:41.104Z,44928.00
2022-10-11T13:20:42.525Z,43328.00
2022-10-11T13:21:41.043Z,43264.00
2022-10-11T13:22:41.018Z,44512.00
2022-10-11T13:23:41.032Z,45088.00
2022-10-11T13:24:40.995Z,40224.00
2022-10-11T13:25:40.986Z,41728.00
2022-10-11T13:26:40.958Z,43552.00
2022-10-11T13:27:40.946Z,41536.00
2022-10-11T13:28:40.968Z,43904.00
2022-10-11T13:29:40.942Z,43872.00
2022-10-11T13:30:40.899Z,44128.00
2022-10-11T13:31:40.883Z,44256.00
2022-10-11T13:32:40.880Z,42688.00
2022-10-11T13:33:40.867Z,41504.00
2022-10-11T13:34:40.874Z,37824.00
2022-10-11T13:35:40.825Z,36704.00
2022-10-11T13:36:40.850Z,35872.00
2022-10-11T13:37:40.808Z,37440.00
2022-10-11T13:38:40.786Z,38912.00
2022-10-11T13:39:40.786Z,38912.00
2022-10-11T13:40:40.762Z,37792.00
2022-10-11T13:41:40.738Z,34272.00
2022-10-11T13:42:40.737Z,33856.00
2022-10-11T13:43:40.717Z,34464.00
2022-10-11T13:44:40.715Z,35712.00
2022-10-11T13:45:40.724Z,37760.00
2022-10-11T13:46:41.892Z,38688.00
2022-10-11T13:47:40.650Z,39840.00
2022-10-11T13:48:40.638Z,40448.00
2022-10-11T13:49:40.614Z,40640.00
2022-10-11T13:50:40.663Z,41728.00
2022-10-11T13:51:40.614Z,42368.00
2022-10-11T13:52:40.569Z,42304.00
2022-10-11T13:53:40.570Z,40704.00
2022-10-11T13:54:40.557Z,38144.00
2022-10-11T13:55:40.547Z,36992.00
2022-10-11T13:56:40.517Z,37280.00
2022-10-11T13:57:40.521Z,37760.00
2022-10-11T13:58:40.567Z,36832.00
2022-10-11T13:59:40.496Z,35168.00
2022-10-11T14:00:40.478Z,33984.00
2022-10-11T14:01:40.573Z,22816.00
2022-10-11T14:02:40.437Z,10116.00
2022-10-11T14:03:40.419Z,12312.00
2022-10-11T14:04:40.406Z,22656.00
2022-10-11T14:05:40.418Z,21024.00
2022-10-11T14:06:40.414Z,10596.00
2022-10-11T14:08:05.452Z,8428.00
2022-10-11T14:12:54.112Z,15904.00
2022-10-11T14:13:54.110Z,26656.00
2022-10-11T14:14:54.059Z,30592.00
2022-10-11T14:15:54.065Z,30752.00
2022-10-11T14:16:54.049Z,30976.00
2022-10-11T14:17:54.025Z,31296.00
2022-10-11T14:18:54.013Z,31616.00
2022-10-11T14:19:53.994Z,31296.00
2022-10-11T14:20:53.982Z,30368.00
2022-10-11T14:21:53.972Z,29696.00
2022-10-11T14:22:53.989Z,29888.00
2022-10-11T14:23:53.933Z,27328.00
2022-10-11T14:24:53.929Z,28288.00
2022-10-11T14:25:53.906Z,29248.00
2022-10-11T14:26:53.966Z,27744.00
2022-10-11T14:27:53.899Z,17312.00
2022-10-11T14:28:53.902Z,7272.00
2022-10-11T14:30:23.584Z,5912.00
2022-10-11T14:30:53.828Z,5708.00
2022-10-11T14:31:53.827Z,5624.00
2022-10-11T14:32:53.802Z,5644.00
